Time;durP1;ratioP1;P1;durP2;ratioP2;P2;SDS_P1;SDS_P2;PMS_P1;PMS_P2;Temp;Humidity;BMP_temperature;BMP_pressure;BME280_temperature;BME280_humidity;BME280_pressure;Samples;Min_cycle;Max_cycle;Signal;HPM_P1;HPM_P2
2021/12/29 00:01:07;;;;;;;22.80;10.60;;;;;;;-9.35;68.47;98577.21;101020;1323;74525;-19
2021/12/29 00:03:36;;;;;;;25.90;13.20;;;;;;;-9.75;68.87;98583.89;101067;1329;61103;-19
2021/12/29 00:06:06;;;;;;;21.90;11.60;;;;;;;-10.09;70.22;98592.34;101134;1326;61207;-19
2021/12/29 00:08:34;;;;;;;22.10;11.60;;;;;;;-10.44;71.16;98596.38;101018;1326;73899;-19
2021/12/29 00:11:03;;;;;;;8.60;4.00;;;;;;;-10.55;70.93;98592.05;101093;1323;75980;-19
2021/12/29 00:13:32;;;;;;;12.80;4.30;;;;;;;-9.91;70.83;98594.40;101245;1323;74466;-19
2021/12/29 00:16:00;;;;;;;13.70;6.80;;;;;;;-9.22;69.22;98593.91;101335;1323;61117;-19
2021/12/29 00:18:30;;;;;;;25.30;10.40;;;;;;;-9.15;68.19;98598.07;101702;1320;62211;-20
2021/12/29 00:21:01;;;;;;;16.30;9.40;;;;;;;-9.41;68.08;98601.80;101220;1323;74806;-19
2021/12/29 00:23:29;;;;;;;19.20;10.30;;;;;;;-9.77;68.58;98605.91;101086;1320;75464;-19
2021/12/29 00:26:18;;;;;;;14.70;6.10;;;;;;;-10.19;69.05;98610.85;101616;1319;74225;-19
2021/12/29 00:28:47;;;;;;;7.10;3.20;;;;;;;-10.46;69.33;98614.02;101511;1320;61898;-22
2021/12/29 00:31:16;;;;;;;8.50;3.60;;;;;;;-9.95;68.64;98617.95;101287;1319;61873;-19
2021/12/29 00:34:03;;;;;;;15.70;7.00;;;;;;;-9.48;67.09;98619.84;101243;1320;72673;-20
2021/12/29 00:36:57;;;;;;;14.40;7.10;;;;;;;-9.71;66.29;98615.13;101244;1320;76167;-19
2021/12/29 00:39:44;;;;;;;13.00;7.30;;;;;;;-10.15;66.99;98615.55;101160;1322;74661;-19
2021/12/29 00:42:31;;;;;;;12.80;5.60;;;;;;;-10.59;67.85;98615.56;101666;1320;61129;-19
2021/12/29 00:45:18;;;;;;;3.50;2.40;;;;;;;-10.92;68.43;98613.45;101632;1319;61172;-19
2021/12/29 00:47:48;;;;;;;7.20;3.10;;;;;;;-10.42;69.05;98610.95;101629;1320;74853;-19
2021/12/29 00:50:17;;;;;;;12.10;6.80;;;;;;;-9.71;67.83;98606.89;101404;1319;76565;-19
2021/12/29 00:52:45;;;;;;;18.80;9.30;;;;;;;-9.67;66.20;98607.54;101461;1320;73315;-20
2021/12/29 00:55:14;;;;;;;15.00;9.10;;;;;;;-10.03;66.92;98607.58;101523;1320;61221;-19
2021/12/29 00:57:44;;;;;;;18.90;9.50;;;;;;;-10.46;67.93;98604.43;101745;1319;61101;-19
2021/12/29 01:00:17;;;;;;;14.00;6.60;;;;;;;-10.88;69.16;98596.34;101409;1317;73227;-20
2021/12/29 01:02:45;;;;;;;9.80;5.10;;;;;;;-10.95;70.61;98589.80;101250;1323;75815;-20
2021/12/29 01:05:15;;;;;;;14.10;5.50;;;;;;;-10.36;71.12;98582.73;101663;1316;74453;-19
2021/12/29 01:07:44;;;;;;;31.60;12.90;;;;;;;-9.88;68.74;98574.23;101725;1317;61214;-19
2021/12/29 01:10:14;;;;;;;37.20;14.50;;;;;;;-9.64;68.38;98567.19;101719;1316;61214;-19
2021/12/29 01:12:52;;;;;;;18.90;8.50;;;;;;;-9.87;68.43;98564.99;101655;1319;73083;-19
2021/12/29 01:15:25;;;;;;;19.90;8.60;;;;;;;-10.18;69.00;98562.98;101761;1317;75103;-19
2021/12/29 01:17:54;;;;;;;;;;;;;;;-10.55;70.33;98556.64;101552;1316;73388;-19
2021/12/29 01:20:23;;;;;;;7.50;2.80;;;;;;;-10.59;71.30;98560.86;101754;1319;62336;-19
2021/12/29 01:22:51;;;;;;;16.50;5.60;;;;;;;-9.75;70.57;98555.34;101688;1319;61213;-19
2021/12/29 01:25:21;;;;;;;44.80;17.50;;;;;;;-9.18;69.02;98552.01;101660;1323;72902;-19
2021/12/29 01:27:50;;;;;;;37.40;16.40;;;;;;;-9.18;68.32;98556.05;101713;1320;75877;-19
2021/12/29 01:30:19;;;;;;;31.50;14.10;;;;;;;-9.40;68.50;98561.79;101673;1316;74330;-19
2021/12/29 01:32:54;;;;;;;27.40;12.00;;;;;;;-9.64;68.73;98565.34;101644;1316;61249;-19
2021/12/29 01:35:23;;;;;;;24.40;9.70;;;;;;;-9.89;69.27;98565.02;101678;1316;61189;-19
2021/12/29 01:37:51;;;;;;;7.30;2.50;;;;;;;-10.03;70.19;98569.63;101693;1317;72036;-19
2021/12/29 01:40:19;;;;;;;12.20;5.40;;;;;;;-9.37;69.94;98569.65;101692;1317;76056;-19
2021/12/29 01:42:48;;;;;;;31.10;11.60;;;;;;;-8.66;68.50;98570.33;101822;1316;74502;-19
2021/12/29 01:45:16;;;;;;;11.90;5.70;;;;;;;-8.57;67.43;98565.52;101694;1316;61223;-20
2021/12/29 01:47:45;;;;;;;23.90;11.30;;;;;;;-8.84;66.86;98560.27;101652;1323;61255;-19
2021/12/29 01:50:21;;;;;;;13.00;6.80;;;;;;;-9.17;67.64;98549.46;101573;1320;73182;-19
2021/12/29 01:53:01;;;;;;;18.00;6.80;;;;;;;-9.49;68.42;98543.88;101606;1320;75964;-19
2021/12/29 01:55:31;;;;;;;14.00;4.20;;;;;;;-9.86;69.26;98544.99;101635;1320;72616;-19
2021/12/29 01:58:00;;;;;;;14.20;5.50;;;;;;;-9.72;69.54;98538.16;101765;1316;63779;-19
2021/12/29 02:00:29;;;;;;;17.20;7.60;;;;;;;-8.92;68.73;98534.93;101775;1317;61210;-20
2021/12/29 02:02:58;;;;;;;7.70;3.40;;;;;;;-8.61;67.77;98534.58;101694;1319;72813;-20
2021/12/29 02:05:26;;;;;;;15.90;6.20;;;;;;;-8.77;67.70;98527.02;101748;1316;75389;-19
2021/12/29 02:07:55;;;;;;;20.90;9.60;;;;;;;-9.13;67.91;98526.56;101799;1316;72657;-19
2021/12/29 02:10:24;;;;;;;14.00;7.80;;;;;;;-9.46;68.20;98517.96;101716;1317;61341;-19
2021/12/29 02:12:53;;;;;;;6.70;4.10;;;;;;;-9.77;68.41;98509.82;101683;1316;61199;-19
2021/12/29 02:15:22;;;;;;;4.80;3.10;;;;;;;-9.97;69.74;98498.55;101481;1319;74829;-19
2021/12/29 02:17:52;;;;;;;14.50;5.30;;;;;;;-9.35;69.55;98494.98;101670;1320;76151;-20
2021/12/29 02:20:21;;;;;;;21.20;9.90;;;;;;;-8.78;67.85;98491.36;101669;1320;74544;-19
2021/12/29 02:23:00;;;;;;;11.90;4.20;;;;;;;-8.84;67.22;98487.05;101725;1320;61119;-19
2021/12/29 02:25:46;;;;;;;20.60;6.80;;;;;;;-9.21;67.59;98486.95;101685;1319;61169;-20
2021/12/29 02:28:36;;;;;;;10.60;5.50;;;;;;;-9.70;68.09;98482.88;100205;1317;1003878;-19
2021/12/29 02:31:04;;;;;;;6.90;3.80;;;;;;;-10.05;69.39;98484.98;101716;1316;76069;-19
2021/12/29 02:33:35;;;;;;;10.30;3.10;;;;;;;-10.16;70.06;98483.90;101688;1317;74464;-19
2021/12/29 02:36:04;;;;;;;19.00;4.40;;;;;;;-9.46;69.40;98478.95;101783;1317;61211;-20
2021/12/29 02:38:35;;;;;;;9.70;5.10;;;;;;;-8.90;68.00;98480.73;101808;1316;61548;-19
2021/12/29 02:41:04;;;;;;;18.60;8.60;;;;;;;-8.92;67.65;98476.88;101646;1320;73406;-19
2021/12/29 02:43:37;;;;;;;14.30;5.70;;;;;;;-9.20;67.81;98476.19;101699;1319;75502;-19
2021/12/29 02:46:11;;;;;;;6.40;3.50;;;;;;;-9.48;68.29;98473.60;100937;1320;1003129;-19
2021/12/29 02:48:52;;;;;;;11.30;5.70;;;;;;;-9.89;69.26;98470.77;101611;1317;61244;-19
2021/12/29 02:51:20;;;;;;;7.50;3.40;;;;;;;-10.13;69.80;98466.75;101509;1319;61179;-19
2021/12/29 02:53:48;;;;;;;5.90;3.60;;;;;;;-9.58;69.82;98469.16;101701;1317;74906;-19
2021/12/29 02:56:17;;;;;;;7.30;3.30;;;;;;;-8.93;68.49;98471.19;101713;1317;74351;-19
2021/12/29 02:58:45;;;;;;;7.00;4.40;;;;;;;-8.98;67.00;98466.69;101706;1316;72982;-19
2021/12/29 03:01:14;;;;;;;9.70;5.20;;;;;;;-9.20;67.75;98462.73;101680;1316;61354;-20
2021/12/29 03:03:43;;;;;;;8.50;4.90;;;;;;;-9.49;68.34;98461.85;101450;1319;61173;-19
2021/12/29 03:06:12;;;;;;;11.40;4.40;;;;;;;-9.79;69.12;98459.26;101699;1316;73045;-19
2021/12/29 03:08:42;;;;;;;5.80;2.10;;;;;;;-10.05;70.11;98460.46;101404;1320;76120;-19
2021/12/29 03:11:11;;;;;;;6.20;2.50;;;;;;;-9.76;70.16;98456.70;101626;1317;74548;-19
2021/12/29 03:13:39;;;;;;;9.30;4.00;;;;;;;-8.92;68.91;98453.49;101777;1316;61325;-20
2021/12/29 03:16:08;;;;;;;10.70;3.70;;;;;;;-8.64;67.78;98452.98;101749;1316;61825;-19
2021/12/29 03:18:36;;;;;;;4.40;1.90;;;;;;;-8.78;67.74;98446.08;101720;1319;75202;-20
2021/12/29 03:21:05;;;;;;;30.00;14.00;;;;;;;-9.09;67.83;98445.11;101562;1319;74440;-19
2021/12/29 03:23:34;;;;;;;30.80;12.90;;;;;;;-9.44;68.05;98447.85;101673;1316;74461;-19
2021/12/29 03:26:02;;;;;;;9.70;5.00;;;;;;;-9.70;69.02;98449.10;101719;1317;61275;-20
2021/12/29 03:28:31;;;;;;;11.00;4.50;;;;;;;-9.78;69.47;98448.50;101678;1316;61210;-19
2021/12/29 03:30:59;;;;;;;16.80;5.80;;;;;;;-9.04;69.37;98451.61;101804;1316;74704;-20
2021/12/29 03:33:31;;;;;;;17.30;7.70;;;;;;;-8.41;67.67;98459.20;101779;1316;75974;-19
2021/12/29 03:36:02;;;;;;;12.60;6.30;;;;;;;-8.38;67.14;98470.95;101916;1316;74551;-19
2021/12/29 03:38:34;;;;;;;7.20;3.30;;;;;;;-8.62;67.71;98478.37;101693;1316;61302;-20
2021/12/29 03:41:03;;;;;;;9.40;4.40;;;;;;;-8.95;68.19;98478.43;101673;1320;61197;-19
2021/12/29 03:43:32;;;;;;;8.80;4.50;;;;;;;-9.27;68.55;98475.24;101663;1320;73861;-19
2021/12/29 03:46:01;;;;;;;7.80;3.10;;;;;;;-9.53;68.96;98475.33;101736;1317;73371;-19
2021/12/29 03:48:30;;;;;;;9.60;3.00;;;;;;;-9.54;69.73;98475.68;101772;1319;71649;-19
2021/12/29 03:51:06;;;;;;;12.50;4.90;;;;;;;-8.69;69.48;98478.10;101761;1317;61188;-20
2021/12/29 03:53:35;;;;;;;13.80;6.50;;;;;;;-8.10;68.08;98472.23;101885;1316;62245;-20
2021/12/29 03:56:04;;;;;;;15.70;6.00;;;;;;;-8.04;67.39;98467.59;101510;1316;74885;-19
2021/12/29 03:58:34;;;;;;;14.60;7.20;;;;;;;-8.26;67.45;98469.94;101651;1319;75096;-20
2021/12/29 04:01:09;;;;;;;13.70;6.40;;;;;;;-8.52;67.92;98476.72;101603;1316;74426;-19
2021/12/29 04:03:42;;;;;;;18.40;5.30;;;;;;;-8.81;68.62;98476.59;101698;1317;61226;-19
2021/12/29 04:06:10;;;;;;;10.70;4.90;;;;;;;-9.01;69.03;98474.31;101673;1316;61293;-19
2021/12/29 04:08:38;;;;;;;8.30;3.50;;;;;;;-9.17;69.51;98470.26;101836;1317;75681;-19
2021/12/29 04:11:07;;;;;;;19.00;4.30;;;;;;;-8.59;69.50;98474.27;101775;1316;75882;-19
2021/12/29 04:13:36;;;;;;;18.70;9.20;;;;;;;-7.85;66.92;98470.33;101444;1316;74487;-19
2021/12/29 04:16:06;;;;;;;19.70;10.90;;;;;;;-7.70;66.76;98462.33;101707;1317;61194;-20
2021/12/29 04:18:35;;;;;;;29.10;13.50;;;;;;;-7.87;67.14;98468.52;101561;1317;61222;-20
2021/12/29 04:21:04;;;;;;;22.50;13.00;;;;;;;-8.18;67.60;98469.67;101738;1317;72651;-19
2021/12/29 04:23:34;;;;;;;22.40;10.40;;;;;;;-8.46;68.14;98471.06;101623;1317;76066;-19
2021/12/29 04:26:04;;;;;;;22.80;7.80;;;;;;;-8.63;68.67;98471.48;101165;1317;73453;-19
2021/12/29 04:28:33;;;;;;;24.10;9.60;;;;;;;-8.82;68.96;98465.83;101495;1319;61221;-19
2021/12/29 04:31:12;;;;;;;20.80;7.60;;;;;;;-8.89;69.61;98470.79;101510;1316;61268;-19
2021/12/29 04:33:40;;;;;;;26.20;9.70;;;;;;;-8.16;69.38;98473.16;101551;1317;75769;-21
2021/12/29 04:36:08;;;;;;;10.50;5.10;;;;;;;-7.53;67.54;98474.87;101535;1317;76287;-19
2021/12/29 04:38:37;;;;;;;10.60;5.80;;;;;;;-7.49;66.85;98473.95;101640;1317;73643;-20
2021/12/29 04:41:05;;;;;;;10.00;3.80;;;;;;;-7.64;67.03;98472.19;101743;1315;61259;-20
2021/12/29 04:43:35;;;;;;;10.60;4.90;;;;;;;-8.05;67.54;98469.48;101821;1319;61122;-19
2021/12/29 04:46:04;;;;;;;10.80;4.60;;;;;;;-8.37;68.36;98460.66;101531;1316;74275;-19
2021/12/29 04:48:38;;;;;;;12.60;4.00;;;;;;;-8.62;68.93;98458.68;101694;1316;72062;-19
2021/12/29 04:51:14;;;;;;;4.30;2.60;;;;;;;-8.80;69.37;98456.88;101518;1317;72344;-19
2021/12/29 04:53:43;;;;;;;6.10;2.70;;;;;;;-8.85;70.03;98458.30;101533;1317;62601;-19
2021/12/29 04:56:11;;;;;;;5.30;2.10;;;;;;;-8.08;69.44;98452.31;101622;1317;61171;-19
2021/12/29 04:58:40;;;;;;;9.90;5.00;;;;;;;-7.50;68.31;98457.62;101613;1317;74162;-20
2021/12/29 05:01:10;;;;;;;11.30;5.00;;;;;;;-7.44;67.53;98458.86;101710;1317;74958;-20
2021/12/29 05:03:41;;;;;;;8.10;4.30;;;;;;;-7.61;67.32;98460.67;101701;1316;70649;-19
2021/12/29 05:08:51;;;;;;;8.90;4.30;;;;;;;-8.16;67.93;98463.73;101649;1316;61168;-19
2021/12/29 05:11:20;;;;;;;8.20;3.80;;;;;;;-8.42;68.34;98470.34;101730;1316;74100;-19
2021/12/29 05:13:49;;;;;;;8.40;3.30;;;;;;;-8.61;68.95;98472.48;101590;1315;74109;-19
2021/12/29 05:16:17;;;;;;;6.00;2.70;;;;;;;-8.80;70.05;98470.67;101637;1316;74557;-19
2021/12/29 05:18:47;;;;;;;25.00;8.00;;;;;;;-8.29;69.77;98467.97;101549;1317;62651;-19
2021/12/29 05:21:16;;;;;;;38.10;15.10;;;;;;;-7.45;68.37;98473.38;101578;1316;61317;-20
2021/12/29 05:23:44;;;;;;;42.50;14.00;;;;;;;-7.20;66.82;98473.94;101554;1316;75717;-20
2021/12/29 05:26:12;;;;;;;37.30;14.60;;;;;;;-7.34;66.67;98470.14;101531;1316;75075;-20
2021/12/29 05:28:41;;;;;;;25.30;11.50;;;;;;;-7.55;67.12;98465.29;101515;1317;74314;-19
2021/12/29 05:31:10;;;;;;;24.90;9.90;;;;;;;-7.83;67.64;98462.20;101703;1317;61519;-19
2021/12/29 05:33:39;;;;;;;16.80;6.00;;;;;;;-8.06;67.83;98458.18;101504;1316;61117;-19
2021/12/29 05:36:08;;;;;;;21.90;8.60;;;;;;;-8.32;68.35;98456.89;101504;1319;75613;-19
2021/12/29 05:38:37;;;;;;;10.00;4.20;;;;;;;-8.58;69.11;98447.67;101593;1320;76065;-19
2021/12/29 05:41:05;;;;;;;7.30;4.30;;;;;;;-8.58;69.85;98444.48;101542;1316;73487;-19
2021/12/29 05:43:33;;;;;;;13.70;6.20;;;;;;;-7.78;69.42;98445.95;101509;1316;61200;-20
2021/12/29 05:46:02;;;;;;;14.80;7.30;;;;;;;-7.28;68.03;98448.63;101510;1317;61103;-20
2021/12/29 05:48:31;;;;;;;8.70;4.90;;;;;;;-7.28;67.72;98452.00;101562;1317;75515;-20
2021/12/29 05:51:00;;;;;;;14.20;8.00;;;;;;;-7.51;68.01;98448.52;101760;1316;74789;-20
2021/12/29 05:53:28;;;;;;;15.80;7.20;;;;;;;-7.80;68.36;98452.39;101824;1317;71509;-19
2021/12/29 05:55:57;;;;;;;11.50;6.10;;;;;;;-8.05;68.65;98452.95;101767;1317;61223;-20
2021/12/29 05:58:25;;;;;;;12.00;5.80;;;;;;;-8.28;69.10;98454.31;101921;1317;61126;-19
2021/12/29 06:00:55;;;;;;;8.30;4.60;;;;;;;-8.51;69.33;98460.88;101936;1316;74722;-19
2021/12/29 06:03:25;;;;;;;4.10;2.30;;;;;;;-8.64;69.65;98461.91;101919;1316;75961;-19
2021/12/29 06:05:54;;;;;;;4.30;2.50;;;;;;;-8.10;69.88;98458.92;101935;1316;74360;-19
2021/12/29 06:08:22;;;;;;;5.50;2.90;;;;;;;-7.34;68.33;98460.03;101580;1316;61236;-20
2021/12/29 06:10:51;;;;;;;19.90;9.50;;;;;;;-7.24;67.20;98460.52;101677;1317;61221;-20
2021/12/29 06:13:20;;;;;;;12.60;4.80;;;;;;;-7.44;67.46;98462.41;101735;1316;75427;-20
2021/12/29 06:15:49;;;;;;;20.00;11.70;;;;;;;-7.77;67.90;98459.23;101612;1316;75830;-19
2021/12/29 06:18:17;;;;;;;11.50;6.40;;;;;;;-8.08;68.78;98455.86;101491;1316;73462;-19
2021/12/29 06:20:46;;;;;;;11.80;4.50;;;;;;;-8.37;69.38;98456.80;101635;1317;61192;-19
2021/12/29 06:23:15;;;;;;;22.00;8.40;;;;;;;-8.62;70.05;98460.20;101588;1316;61094;-19
2021/12/29 06:25:46;;;;;;;7.50;3.40;;;;;;;-8.78;70.55;98462.73;101699;1316;74629;-19
2021/12/29 06:28:14;;;;;;;8.10;4.40;;;;;;;-8.23;70.63;98460.80;101795;1317;74919;-19
2021/12/29 06:30:45;;;;;;;14.80;4.30;;;;;;;-7.41;69.11;98462.67;101804;1317;73395;-19
2021/12/29 06:33:14;;;;;;;15.60;6.60;;;;;;;-7.25;68.02;98464.94;101968;1316;61317;-19
2021/12/29 06:35:42;;;;;;;17.70;7.10;;;;;;;-7.41;68.04;98468.09;101937;1316;62099;-20
2021/12/29 06:38:11;;;;;;;14.70;8.60;;;;;;;-7.65;68.55;98469.52;101824;1316;75501;-19
2021/12/29 06:40:39;;;;;;;12.40;6.00;;;;;;;-7.94;69.08;98463.73;101599;1316;75042;-19
2021/12/29 06:43:08;;;;;;;10.70;4.40;;;;;;;-8.16;69.39;98466.92;101809;1317;74543;-19
2021/12/29 06:45:36;;;;;;;13.20;5.80;;;;;;;-8.37;70.09;98470.11;101773;1316;62291;-19
2021/12/29 06:48:05;;;;;;;13.60;4.70;;;;;;;-8.59;70.80;98461.84;101615;1316;61154;-19
2021/12/29 06:50:33;;;;;;;6.10;2.90;;;;;;;-8.31;71.08;98460.75;101932;1316;74365;-19
2021/12/29 06:53:02;;;;;;;4.60;2.60;;;;;;;-7.46;69.48;98457.04;101967;1316;72375;-19
2021/12/29 06:55:31;;;;;;;15.10;8.30;;;;;;;-7.13;68.16;98452.23;101521;1316;73477;-19
2021/12/29 06:57:59;;;;;;;17.10;7.70;;;;;;;-7.21;68.23;98448.14;101623;1316;61163;-19
2021/12/29 07:00:27;;;;;;;17.60;7.60;;;;;;;-7.42;68.69;98449.37;101866;1316;61352;-19
2021/12/29 07:02:57;;;;;;;12.50;6.00;;;;;;;-7.71;69.07;98447.02;101656;1316;75608;-20
2021/12/29 07:05:26;;;;;;;3.60;3.00;;;;;;;-7.97;69.47;98443.56;101548;1316;75318;-19
2021/12/29 07:07:54;;;;;;;12.40;6.20;;;;;;;-8.20;69.81;98441.90;101601;1316;73393;-19
2021/12/29 07:10:32;;;;;;;4.70;3.50;;;;;;;-8.39;70.72;98440.98;101592;1323;61162;-19
2021/12/29 07:13:01;;;;;;;3.70;1.60;;;;;;;-8.43;71.21;98437.20;101791;1317;61207;-20
2021/12/29 07:15:31;;;;;;;8.90;4.20;;;;;;;-7.65;70.58;98440.50;101646;1316;75559;-20
2021/12/29 07:17:59;;;;;;;10.60;6.40;;;;;;;-6.97;68.47;98448.03;101786;1316;74033;-19
2021/12/29 07:20:27;;;;;;;8.70;4.20;;;;;;;-6.92;67.43;98444.05;101863;1317;73606;-19
2021/12/29 07:22:56;;;;;;;6.50;3.10;;;;;;;-7.15;68.22;98447.68;101786;1317;61208;-19
2021/12/29 07:25:24;;;;;;;9.70;5.00;;;;;;;-7.40;68.40;98449.17;101976;1319;61171;-19
2021/12/29 07:27:53;;;;;;;6.40;2.90;;;;;;;-7.65;69.11;98446.75;101920;1316;74563;-20
2021/12/29 07:30:22;;;;;;;13.10;6.40;;;;;;;-7.82;69.47;98451.59;101698;1317;74511;-20
2021/12/29 07:32:50;;;;;;;9.70;4.30;;;;;;;-8.03;70.17;98456.96;101620;1320;74530;-19
2021/12/29 07:35:19;;;;;;;4.50;2.90;;;;;;;-8.24;70.80;98454.41;101506;1316;61194;-19
2021/12/29 07:37:47;;;;;;;3.60;1.90;;;;;;;-8.23;71.49;98451.88;101664;1317;61507;-19
2021/12/29 07:40:15;;;;;;;3.90;2.30;;;;;;;-7.42;70.66;98457.80;101518;1316;75861;-20
2021/12/29 07:42:45;;;;;;;8.90;3.90;;;;;;;-6.71;69.08;98463.54;101626;1316;76090;-19
2021/12/29 07:45:13;;;;;;;8.90;4.90;;;;;;;-6.58;68.01;98462.09;101792;1316;74395;-19
2021/12/29 07:47:47;;;;;;;7.90;4.80;;;;;;;-6.71;68.34;98465.08;101527;1321;61223;-20
2021/12/29 07:50:15;;;;;;;;;;;;;;;-6.93;68.22;98463.64;101449;1319;190803;-19
2021/12/29 07:52:58;;;;;;;6.40;4.00;;;;;;;-7.15;69.35;98463.21;101729;1317;74387;-20
2021/12/29 07:55:26;;;;;;;6.80;3.10;;;;;;;-7.29;69.64;98463.32;101797;1317;74591;-20
2021/12/29 07:57:55;;;;;;;13.90;6.20;;;;;;;-7.47;70.03;98464.98;101807;1317;73571;-19
2021/12/29 08:00:24;;;;;;;14.70;6.20;;;;;;;-7.64;70.27;98465.43;101835;1320;61258;-19
2021/12/29 08:02:53;;;;;;;8.90;4.60;;;;;;;-7.73;71.01;98466.09;101951;1317;61616;-19
2021/12/29 08:05:22;;;;;;;6.40;1.50;;;;;;;-7.81;71.35;98473.30;101855;1316;74399;-19
2021/12/29 08:07:51;;;;;;;6.30;2.80;;;;;;;-7.29;71.25;98472.73;101584;1317;76199;-20
2021/12/29 08:10:39;;;;;;;8.70;5.10;;;;;;;-6.27;69.52;98474.26;101460;1317;75556;-20
2021/12/29 08:13:08;;;;;;;3.70;2.30;;;;;;;-6.03;68.29;98476.79;101544;1316;61129;-20
2021/12/29 08:15:36;;;;;;;8.00;3.90;;;;;;;-6.18;67.85;98476.42;101585;1317;61246;-20
2021/12/29 08:18:05;;;;;;;3.50;2.00;;;;;;;-6.42;68.44;98475.27;101526;1316;74595;-20
2021/12/29 08:20:35;;;;;;;6.20;3.50;;;;;;;-6.67;68.92;98467.52;101546;1316;75344;-20
2021/12/29 08:23:04;;;;;;;5.80;3.70;;;;;;;-6.92;69.50;98464.80;101635;1316;71742;-19
2021/12/29 08:25:33;;;;;;;6.50;3.70;;;;;;;-7.06;69.97;98464.05;101615;1319;61115;-19
2021/12/29 08:28:01;;;;;;;7.70;3.60;;;;;;;-7.16;70.26;98469.66;100793;1317;1002955;-20
2021/12/29 08:30:30;;;;;;;4.50;2.60;;;;;;;-7.27;70.32;98474.74;101744;1316;74620;-20
2021/12/29 08:32:59;;;;;;;10.20;3.60;;;;;;;-7.40;71.03;98474.13;101789;1316;76158;-20
2021/12/29 08:35:27;;;;;;;4.00;1.70;;;;;;;-7.55;71.18;98464.80;101591;1316;72326;-19
2021/12/29 08:37:56;;;;;;;3.60;1.90;;;;;;;-7.68;71.88;98461.96;101740;1316;62801;-20
2021/12/29 08:40:25;;;;;;;7.10;2.90;;;;;;;-7.04;71.65;98461.65;101594;1317;61307;-19
2021/12/29 08:42:58;;;;;;;5.20;2.70;;;;;;;-6.17;69.36;98457.80;101714;1316;75915;-20
2021/12/29 08:45:26;;;;;;;5.80;3.50;;;;;;;-5.91;68.40;98449.25;101591;1317;74941;-20
2021/12/29 08:47:58;;;;;;;4.00;2.20;;;;;;;-5.99;68.17;98443.87;101551;1317;74642;-19
2021/12/29 08:50:31;;;;;;;2.40;1.80;;;;;;;-6.23;68.21;98440.52;101616;1320;61090;-20
2021/12/29 08:53:02;;;;;;;4.10;2.50;;;;;;;-6.46;68.76;98442.42;101601;1323;61912;-20
2021/12/29 08:55:33;;;;;;;3.90;2.50;;;;;;;-6.71;69.68;98439.73;101615;1316;75335;-20
2021/12/29 08:58:01;;;;;;;5.50;2.60;;;;;;;-6.94;70.69;98431.59;101522;1319;76169;-19
2021/12/29 09:00:31;;;;;;;4.70;3.20;;;;;;;-7.08;70.91;98435.23;101611;1316;74888;-19
2021/12/29 09:03:00;;;;;;;3.70;2.30;;;;;;;-7.14;71.04;98435.20;101490;1316;61351;-19
2021/12/29 09:05:29;;;;;;;7.20;3.60;;;;;;;-7.26;71.11;98428.85;101742;1316;62130;-20
2021/12/29 09:07:58;;;;;;;2.50;1.60;;;;;;;-7.39;71.82;98426.90;101724;1317;75726;-20
2021/12/29 09:10:27;;;;;;;5.30;2.70;;;;;;;-6.69;71.97;98427.01;102304;1314;75895;-19
2021/12/29 09:12:56;;;;;;;4.40;2.10;;;;;;;-5.82;69.43;98425.19;102246;1313;74344;-20
2021/12/29 09:15:25;;;;;;;3.10;2.40;;;;;;;-5.62;68.06;98423.33;101931;1319;61298;-20
2021/12/29 09:17:55;;;;;;;3.70;2.30;;;;;;;-5.83;67.72;98424.70;102120;1313;61116;-20
2021/12/29 09:20:26;;;;;;;3.90;3.00;;;;;;;-6.07;68.23;98421.75;102019;1314;74193;-20
2021/12/29 09:23:04;;;;;;;2.50;1.80;;;;;;;-6.28;68.88;98421.08;102149;1317;76073;-20
2021/12/29 09:25:38;;;;;;;3.50;1.90;;;;;;;-6.56;69.26;98418.83;101710;1317;72725;-20
2021/12/29 09:28:07;;;;;;;5.70;2.90;;;;;;;-6.85;70.26;98420.27;101732;1316;62234;-20
2021/12/29 09:30:37;;;;;;;9.60;3.00;;;;;;;-6.99;70.66;98417.35;102002;1313;61180;-19
2021/12/29 09:33:07;;;;;;;2.70;1.70;;;;;;;-7.09;71.15;98419.90;102047;1313;74254;-19
2021/12/29 09:35:35;;;;;;;2.50;1.80;;;;;;;-7.14;71.86;98424.08;102053;1313;76253;-19
2021/12/29 09:38:05;;;;;;;2.70;1.80;;;;;;;-7.26;71.70;98415.86;101919;1314;72236;-19
2021/12/29 09:40:34;;;;;;;2.30;1.70;;;;;;;-6.58;71.69;98415.63;101730;1316;61216;-19
2021/12/29 09:43:02;;;;;;;4.80;2.10;;;;;;;-5.79;69.27;98414.64;102071;1317;61122;-20
2021/12/29 09:45:31;;;;;;;3.00;2.10;;;;;;;-5.73;68.11;98423.09;102013;1313;76494;-20
2021/12/29 09:47:59;;;;;;;3.20;2.50;;;;;;;-5.93;68.19;98424.60;102105;1313;75219;-20
2021/12/29 09:50:29;;;;;;;4.80;2.90;;;;;;;-6.18;68.38;98426.74;101647;1316;73166;-20
2021/12/29 09:52:57;;;;;;;4.80;2.60;;;;;;;-6.45;69.02;98421.95;102010;1313;61097;-19
2021/12/29 09:55:26;;;;;;;6.10;1.80;;;;;;;-6.71;70.15;98418.13;102064;1314;61130;-19
2021/12/29 09:57:58;;;;;;;3.30;1.70;;;;;;;-6.87;70.46;98413.90;101936;1313;75396;-20
2021/12/29 10:00:38;;;;;;;4.60;2.20;;;;;;;-6.95;70.68;98406.64;101679;1316;74647;-19
2021/12/29 10:03:08;;;;;;;3.90;2.30;;;;;;;-7.03;71.37;98403.94;102063;1314;72540;-19
2021/12/29 10:05:39;;;;;;;5.20;2.70;;;;;;;-7.13;71.68;98407.17;101675;1316;61183;-19
2021/12/29 10:08:28;;;;;;;4.40;1.60;;;;;;;-7.19;72.22;98402.55;102031;1314;61253;-19
2021/12/29 10:11:04;;;;;;;3.80;1.80;;;;;;;-7.06;72.04;98399.44;102104;1317;74922;-19
2021/12/29 10:13:34;;;;;;;3.50;2.60;;;;;;;-6.17;70.04;98393.75;101902;1316;76002;-19
2021/12/29 10:16:10;;;;;;;4.20;2.20;;;;;;;-5.78;68.37;98398.38;101601;1317;74287;-20
2021/12/29 10:18:43;;;;;;;3.00;1.90;;;;;;;-5.79;67.47;98401.80;101796;1317;61210;-20
2021/12/29 10:21:13;;;;;;;3.10;1.90;;;;;;;-5.90;68.29;98404.41;101721;1319;61904;-19
2021/12/29 10:23:47;;;;;;;2.40;1.40;;;;;;;-6.09;68.60;98402.35;101728;1317;75557;-19
2021/12/29 10:26:39;;;;;;;1.70;1.60;;;;;;;-6.42;69.38;98396.54;100977;1317;1003028;-19
2021/12/29 10:29:09;;;;;;;2.00;1.50;;;;;;;-6.62;70.03;98392.10;101554;1317;72296;-19
2021/12/29 10:31:46;;;;;;;2.10;1.80;;;;;;;-6.77;70.55;98389.73;101664;1316;61200;-19
2021/12/29 10:34:24;;;;;;;3.80;2.40;;;;;;;-6.89;71.17;98392.33;101701;1317;61208;-19
2021/12/29 10:36:59;;;;;;;3.70;2.70;;;;;;;-6.97;71.22;98385.07;101905;1319;75653;-19
2021/12/29 10:39:28;;;;;;;6.10;2.20;;;;;;;-7.05;71.50;98385.23;101565;1316;74771;-19
2021/12/29 10:42:10;;;;;;;3.60;2.20;;;;;;;-6.52;70.85;98383.27;102034;1317;72522;-19
2021/12/29 10:44:46;;;;;;;5.30;2.20;;;;;;;-5.96;69.17;98384.63;101764;1317;61156;-19
2021/12/29 10:47:33;;;;;;;4.70;1.40;;;;;;;-5.97;68.60;98385.34;102142;1317;61231;-19
2021/12/29 10:50:03;;;;;;;2.20;1.80;;;;;;;-6.07;68.55;98387.63;102049;1313;75794;-19
2021/12/29 10:52:39;;;;;;;3.10;1.90;;;;;;;-6.11;69.16;98386.70;102026;1313;75143;-19
2021/12/29 10:55:09;;;;;;;3.90;2.10;;;;;;;-6.24;69.20;98384.14;102004;1317;72196;-19
2021/12/29 10:57:38;;;;;;;3.50;1.90;;;;;;;-6.53;69.67;98382.29;101870;1317;61180;-19
2021/12/29 11:00:08;;;;;;;3.50;2.00;;;;;;;-6.73;69.78;98377.48;102033;1313;61120;-20
2021/12/29 11:02:37;;;;;;;2.20;1.40;;;;;;;-6.97;71.10;98380.19;102054;1312;72481;-19
2021/12/29 11:05:09;;;;;;;1.40;1.10;;;;;;;-7.00;71.73;98380.41;102144;1313;76009;-19
2021/12/29 11:07:38;;;;;;;3.00;2.10;;;;;;;-6.30;70.38;98384.43;102005;1317;74625;-19
2021/12/29 11:10:15;;;;;;;3.70;1.50;;;;;;;-5.77;69.02;98385.33;102257;1319;61156;-19
2021/12/29 11:12:53;;;;;;;3.60;2.50;;;;;;;-5.70;68.25;98382.77;102015;1317;62150;-20
2021/12/29 11:15:28;;;;;;;6.30;3.20;;;;;;;-5.82;68.67;98383.09;101706;1317;75692;-19
2021/12/29 11:18:04;;;;;;;1.60;1.00;;;;;;;-6.11;68.76;98386.35;101969;1319;76049;-19
2021/12/29 11:20:33;;;;;;;4.30;2.20;;;;;;;-6.29;68.75;98390.49;102035;1313;74788;-19
2021/12/29 11:23:15;;;;;;;3.50;1.70;;;;;;;-6.40;69.28;98390.09;101704;1319;62233;-20
2021/12/29 11:25:44;;;;;;;3.60;2.10;;;;;;;-6.54;69.76;98385.66;101861;1319;61837;-19
2021/12/29 11:28:27;;;;;;;4.80;2.80;;;;;;;-6.69;70.16;98389.40;101676;1317;74643;-19
2021/12/29 11:30:58;;;;;;;2.50;2.10;;;;;;;-6.84;70.98;98392.05;101723;1316;76256;-19
2021/12/29 11:33:29;;;;;;;0.60;0.50;;;;;;;-6.96;70.90;98389.61;101694;1317;72657;-19
2021/12/29 11:35:58;;;;;;;2.90;1.60;;;;;;;-6.64;71.20;98395.67;101705;1319;62389;-19
2021/12/29 11:38:34;;;;;;;5.10;2.30;;;;;;;-5.79;69.60;98402.30;101992;1316;61233;-19